createdAt,value
2019-06-08T00:01:45.320Z,100125.00
2019-06-08T00:04:18.585Z,100125.00
2019-06-08T00:06:51.575Z,100133.00
2019-06-08T00:09:24.434Z,100125.00
2019-06-08T00:11:57.271Z,100134.00
2019-06-08T00:14:30.127Z,100147.00
2019-06-08T00:17:02.919Z,100139.00
2019-06-08T00:19:35.759Z,100144.00
2019-06-08T00:22:08.583Z,100146.00
2019-06-08T00:24:41.454Z,100147.00
2019-06-08T00:27:14.300Z,100147.00
2019-06-08T00:29:47.180Z,100140.00
2019-06-08T00:32:20.329Z,100152.00
2019-06-08T00:34:53.280Z,100159.00
2019-06-08T00:37:26.156Z,100168.00
2019-06-08T00:39:58.941Z,100172.00
2019-06-08T00:42:31.802Z,100157.00
2019-06-08T00:45:05.245Z,100157.00
2019-06-08T00:47:47.587Z,100156.00
2019-06-08T00:50:16.485Z,100152.00
2019-06-08T00:52:49.547Z,100178.00
2019-06-08T00:55:23.654Z,100176.00
2019-06-08T00:57:56.637Z,100174.00
2019-06-08T01:00:30.748Z,100182.00
2019-06-08T01:03:03.947Z,100173.00
2019-06-08T01:05:36.836Z,100181.00
2019-06-08T01:08:10.186Z,100193.00
2019-06-08T01:10:43.276Z,100198.00
2019-06-08T01:13:16.370Z,100208.00
2019-06-08T01:15:49.240Z,100223.00
2019-06-08T01:18:24.600Z,100216.00
2019-06-08T01:20:58.718Z,100223.00
2019-06-08T01:23:31.577Z,100224.00
2019-06-08T01:26:04.825Z,100232.00
2019-06-08T01:28:37.893Z,100235.00
2019-06-08T01:31:10.882Z,100232.00
2019-06-08T01:33:43.918Z,100232.00
2019-06-08T01:36:16.777Z,100224.00
2019-06-08T01:38:49.805Z,100241.00
2019-06-08T01:41:23.267Z,100239.00
2019-06-08T01:43:56.305Z,100235.00
2019-06-08T01:46:30.254Z,100219.00
2019-06-08T01:49:03.274Z,100237.00
2019-06-08T01:51:36.137Z,100225.00
2019-06-08T01:54:08.993Z,100237.00
2019-06-08T01:56:42.013Z,100237.00
2019-06-08T01:59:14.993Z,100262.00
2019-06-08T02:01:48.079Z,100272.00
2019-06-08T02:04:21.048Z,100270.00
2019-06-08T02:06:53.862Z,100273.00
2019-06-08T02:09:26.866Z,100270.00
2019-06-08T02:11:59.839Z,100267.00
2019-06-08T02:14:33.276Z,100286.00
2019-06-08T02:17:06.243Z,100280.00
2019-06-08T02:19:39.357Z,100278.00
2019-06-08T02:22:12.226Z,100263.00
2019-06-08T02:24:45.294Z,100267.00
2019-06-08T02:27:18.247Z,100283.00
2019-06-08T02:29:51.138Z,100303.00
2019-06-08T02:32:24.104Z,100301.00
2019-06-08T02:34:57.002Z,100304.00
2019-06-08T02:37:30.843Z,100303.00
2019-06-08T02:40:04.323Z,100290.00
2019-06-08T02:42:37.327Z,100291.00
2019-06-08T02:45:11.232Z,100290.00
2019-06-08T02:47:44.196Z,100286.00
2019-06-08T02:50:39.428Z,100305.00
2019-06-08T02:53:12.672Z,100297.00
2019-06-08T02:55:47.443Z,100315.00
2019-06-08T02:58:41.872Z,100304.00
2019-06-08T03:01:18.909Z,100305.00
2019-06-08T03:03:53.231Z,100303.00
2019-06-08T03:06:30.305Z,100307.00
2019-06-08T03:09:06.662Z,100304.00
2019-06-08T03:11:41.336Z,100304.00
2019-06-08T03:14:18.405Z,100300.00
2019-06-08T03:16:51.404Z,100311.00
2019-06-08T03:19:24.296Z,100298.00
2019-06-08T03:21:57.205Z,100318.00
2019-06-08T03:24:32.398Z,100315.00
2019-06-08T03:27:06.013Z,100319.00
2019-06-08T03:29:41.316Z,100325.00
2019-06-08T03:32:13.940Z,100340.00
2019-06-08T03:34:55.197Z,100337.00
2019-06-08T03:37:21.834Z,100344.00
2019-06-08T03:39:54.832Z,100345.00
2019-06-08T03:42:27.709Z,100362.00
2019-06-08T03:45:00.771Z,100359.00
2019-06-08T03:47:34.529Z,100363.00
2019-06-08T03:50:08.056Z,100371.00
2019-06-08T03:52:42.132Z,100372.00
2019-06-08T03:55:16.051Z,100368.00
2019-06-08T03:57:49.144Z,100372.00
2019-06-08T04:00:22.247Z,100381.00
2019-06-08T04:02:55.261Z,100391.00
2019-06-08T04:05:28.152Z,100397.00
2019-06-08T04:08:00.990Z,100403.00
2019-06-08T04:10:33.904Z,100418.00
2019-06-08T04:13:11.323Z,100416.00
2019-06-08T04:15:44.760Z,100414.00
2019-06-08T04:18:18.032Z,100422.00
2019-06-08T04:20:51.565Z,100434.00
2019-06-08T04:23:24.641Z,100447.00
2019-06-08T04:25:57.526Z,100432.00
2019-06-08T04:28:30.491Z,100449.00
2019-06-08T04:31:03.664Z,100446.00
2019-06-08T04:33:37.781Z,100437.00
2019-06-08T04:36:10.914Z,100449.00
2019-06-08T04:38:45.566Z,100452.00
2019-06-08T04:41:18.689Z,100457.00
2019-06-08T04:43:51.664Z,100467.00
2019-06-08T04:46:24.695Z,100460.00
2019-06-08T04:48:57.655Z,100470.00
2019-06-08T04:51:30.561Z,100476.00
2019-06-08T04:54:03.679Z,100475.00
2019-06-08T04:56:36.593Z,100477.00
2019-06-08T04:59:09.546Z,100475.00
2019-06-08T05:01:43.035Z,100487.00
2019-06-08T05:04:16.287Z,100476.00
2019-06-08T05:06:49.701Z,100489.00
2019-06-08T05:09:22.674Z,100483.00
2019-06-08T05:11:55.575Z,100484.00
2019-06-08T05:14:28.398Z,100514.00
2019-06-08T05:17:01.303Z,100515.00
2019-06-08T05:19:34.899Z,100537.00
2019-06-08T05:22:08.190Z,100508.00
2019-06-08T05:24:41.408Z,100510.00
2019-06-08T05:27:15.472Z,100525.00
2019-06-08T05:29:50.083Z,100532.00
2019-06-08T05:32:23.883Z,100540.00
2019-06-08T05:34:56.749Z,100537.00
2019-06-08T05:37:32.426Z,100557.00
2019-06-08T05:40:06.088Z,100525.00
2019-06-08T05:42:40.611Z,100534.00
2019-06-08T05:45:14.399Z,100545.00
2019-06-08T05:47:47.921Z,100543.00
2019-06-08T05:50:20.970Z,100536.00
2019-06-08T05:52:53.792Z,100539.00
2019-06-08T05:55:26.659Z,100532.00
2019-06-08T05:57:59.499Z,100536.00
2019-06-08T06:00:32.338Z,100545.00
2019-06-08T06:03:05.174Z,100558.00
2019-06-08T06:05:38.062Z,100556.00
2019-06-08T06:08:18.809Z,100564.00
2019-06-08T06:10:46.877Z,100559.00
2019-06-08T06:13:19.876Z,100542.00
2019-06-08T06:15:52.809Z,100566.00
2019-06-08T06:18:25.683Z,100570.00
2019-06-08T06:21:10.492Z,100571.00
2019-06-08T06:23:33.271Z,100562.00
2019-06-08T06:26:06.145Z,100562.00
2019-06-08T06:28:39.029Z,100562.00
2019-06-08T06:31:11.897Z,100538.00
2019-06-08T06:33:45.963Z,100580.00
2019-06-08T06:36:18.993Z,100551.00
2019-06-08T06:38:52.295Z,100554.00
2019-06-08T06:41:25.302Z,100573.00
2019-06-08T06:43:58.482Z,100603.00
2019-06-08T06:46:31.467Z,100597.00
2019-06-08T06:49:04.431Z,100581.00
2019-06-08T06:51:37.293Z,100607.00
2019-06-08T06:54:10.236Z,100615.00
2019-06-08T06:56:43.322Z,100621.00
2019-06-08T06:59:16.195Z,100631.00
2019-06-08T07:01:53.639Z,100633.00
2019-06-08T07:04:23.832Z,100633.00
2019-06-08T07:06:56.693Z,100643.00
2019-06-08T07:09:29.547Z,100647.00
2019-06-08T07:12:04.281Z,100653.00
2019-06-08T07:14:37.136Z,100649.00
2019-06-08T07:17:09.966Z,100666.00
2019-06-08T07:19:42.847Z,100662.00
2019-06-08T07:22:15.763Z,100664.00
2019-06-08T07:24:48.628Z,100681.00
2019-06-08T07:27:21.615Z,100686.00
2019-06-08T07:29:54.877Z,100686.00
2019-06-08T07:32:27.846Z,100678.00
2019-06-08T07:35:00.717Z,100688.00
2019-06-08T07:37:33.664Z,100695.00
2019-06-08T07:40:07.377Z,100697.00
2019-06-08T07:42:40.320Z,100700.00
2019-06-08T07:45:14.139Z,100694.00
2019-06-08T07:47:47.883Z,100702.00
2019-06-08T07:50:20.818Z,100703.00
2019-06-08T07:52:54.790Z,100688.00
2019-06-08T07:55:27.636Z,100702.00
2019-06-08T07:58:00.463Z,100704.00
2019-06-08T08:00:33.264Z,100705.00
2019-06-08T08:03:06.116Z,100695.00
2019-06-08T08:05:38.973Z,100706.00
2019-06-08T08:08:11.813Z,100715.00
2019-06-08T08:10:44.847Z,100723.00
2019-06-08T08:13:17.680Z,100691.00
2019-06-08T08:15:50.818Z,100709.00
2019-06-08T08:18:23.635Z,100723.00
2019-06-08T08:21:02.342Z,100732.00
2019-06-08T08:23:31.437Z,100731.00
2019-06-08T08:26:04.261Z,100727.00
2019-06-08T08:28:37.486Z,100730.00
2019-06-08T08:31:11.461Z,100740.00
2019-06-08T08:33:45.192Z,100719.00
2019-06-08T08:36:21.027Z,100714.00
2019-06-08T08:38:53.688Z,100713.00
2019-06-08T08:41:27.906Z,100715.00
2019-06-08T08:44:04.535Z,100713.00
2019-06-08T08:46:38.476Z,100720.00
2019-06-08T08:49:13.072Z,100714.00
2019-06-08T08:51:47.560Z,100716.00
2019-06-08T08:54:20.038Z,100729.00
2019-06-08T08:56:56.578Z,100723.00
2019-06-08T08:59:29.385Z,100732.00
2019-06-08T09:02:03.089Z,100735.00
2019-06-08T09:04:38.047Z,100735.00
2019-06-08T09:07:12.383Z,100735.00
2019-06-08T09:09:45.306Z,100736.00
2019-06-08T09:12:18.452Z,100728.00
2019-06-08T09:14:51.900Z,100738.00
2019-06-08T09:17:28.009Z,100726.00
2019-06-08T09:20:03.673Z,100744.00
2019-06-08T09:22:52.011Z,100744.00
2019-06-08T09:25:13.534Z,100751.00
2019-06-08T09:27:48.076Z,100760.00
2019-06-08T09:30:20.577Z,100752.00
2019-06-08T09:32:54.446Z,100766.00
2019-06-08T09:35:28.011Z,100766.00
2019-06-08T09:38:03.750Z,100774.00
2019-06-08T09:40:38.396Z,100745.00
2019-06-08T09:43:13.240Z,100749.00
2019-06-08T09:45:45.302Z,100775.00
2019-06-08T09:48:18.452Z,100769.00
2019-06-08T09:50:51.428Z,100774.00
2019-06-08T09:53:34.175Z,100790.00
2019-06-08T09:56:02.358Z,100780.00
2019-06-08T09:58:33.813Z,100765.00
2019-06-08T10:01:09.176Z,100788.00
2019-06-08T10:03:41.596Z,100775.00
2019-06-08T10:06:14.418Z,100801.00
2019-06-08T10:08:48.026Z,100795.00
2019-06-08T10:11:21.083Z,100800.00
2019-06-08T10:13:54.494Z,100769.00
2019-06-08T10:16:27.920Z,100794.00
2019-06-08T10:19:04.821Z,100800.00
2019-06-08T10:21:38.815Z,100803.00
2019-06-08T10:24:11.712Z,100813.00
2019-06-08T10:26:44.573Z,100802.00
2019-06-08T10:29:18.658Z,100810.00
2019-06-08T10:31:51.497Z,100813.00
2019-06-08T10:34:24.298Z,100784.00
2019-06-08T10:36:58.904Z,100797.00
2019-06-08T10:39:31.869Z,100793.00
2019-06-08T10:42:06.556Z,100806.00
2019-06-08T10:44:39.589Z,100830.00
2019-06-08T10:47:12.485Z,100811.00
2019-06-08T10:49:45.297Z,100812.00
2019-06-08T10:52:20.367Z,100813.00
2019-06-08T10:54:53.452Z,100827.00
2019-06-08T10:57:28.024Z,100826.00
2019-06-08T11:00:07.101Z,100828.00
2019-06-08T11:02:37.609Z,100843.00
2019-06-08T11:05:13.960Z,100839.00
2019-06-08T11:07:47.894Z,100844.00
2019-06-08T11:10:20.713Z,100820.00
2019-06-08T11:12:53.543Z,100839.00
2019-06-08T11:15:29.339Z,100847.00
2019-06-08T11:18:04.574Z,100827.00
2019-06-08T11:20:38.230Z,100864.00
2019-06-08T11:23:12.593Z,100850.00
2019-06-08T11:25:45.675Z,100853.00
2019-06-08T11:28:18.662Z,100831.00
2019-06-08T11:30:51.687Z,100844.00
2019-06-08T11:33:24.553Z,100855.00
2019-06-08T11:35:58.153Z,100860.00
2019-06-08T11:38:34.103Z,100848.00
2019-06-08T11:41:11.510Z,100859.00
2019-06-08T11:43:41.764Z,100847.00
2019-06-08T11:46:18.111Z,100837.00
2019-06-08T11:48:49.448Z,100875.00
2019-06-08T11:51:22.345Z,100848.00
2019-06-08T11:53:55.191Z,100873.00
2019-06-08T11:56:30.328Z,100843.00
2019-06-08T11:59:03.516Z,100859.00
2019-06-08T12:01:39.327Z,100858.00
2019-06-08T12:04:13.263Z,100872.00
2019-06-08T12:06:48.336Z,100845.00
2019-06-08T12:09:20.853Z,100867.00
2019-06-08T12:11:53.766Z,100849.00
2019-06-08T12:14:27.696Z,100869.00
2019-06-08T12:17:03.435Z,100850.00
2019-06-08T12:19:38.049Z,100867.00
2019-06-08T12:22:11.921Z,100845.00
2019-06-08T12:24:45.664Z,100852.00
2019-06-08T12:27:26.890Z,100856.00
2019-06-08T12:29:53.291Z,100873.00
2019-06-08T12:32:27.836Z,100849.00
2019-06-08T12:35:00.802Z,100858.00
2019-06-08T12:37:33.650Z,100864.00
2019-06-08T12:40:09.684Z,100875.00
2019-06-08T12:42:41.340Z,100865.00
2019-06-08T12:45:15.514Z,100848.00
2019-06-08T12:47:48.437Z,100878.00
2019-06-08T12:50:21.416Z,100854.00
2019-06-08T12:52:54.279Z,100861.00
2019-06-08T12:55:27.127Z,100866.00
2019-06-08T12:57:59.979Z,100850.00
2019-06-08T13:00:32.941Z,100862.00
2019-06-08T13:03:08.201Z,100860.00
2019-06-08T13:05:40.818Z,100881.00
2019-06-08T13:08:13.691Z,100873.00
2019-06-08T13:10:48.223Z,100856.00
2019-06-08T13:13:24.452Z,100881.00
2019-06-08T13:15:57.919Z,100879.00
2019-06-08T13:18:30.565Z,100877.00
2019-06-08T13:21:20.336Z,100884.00
2019-06-08T13:23:41.236Z,100880.00
2019-06-08T13:26:15.171Z,100854.00
2019-06-08T13:28:47.981Z,100867.00
2019-06-08T13:31:24.135Z,100874.00
2019-06-08T13:33:55.722Z,100892.00
2019-06-08T13:36:29.704Z,100881.00
2019-06-08T13:39:02.781Z,100894.00
2019-06-08T13:41:38.367Z,100885.00
2019-06-08T13:44:11.521Z,100887.00
2019-06-08T13:46:44.568Z,100877.00
2019-06-08T13:49:21.724Z,100884.00
2019-06-08T13:51:52.241Z,100885.00
2019-06-08T13:54:25.093Z,100886.00
2019-06-08T13:56:58.961Z,100879.00
2019-06-08T13:59:32.138Z,100876.00
2019-06-08T14:02:05.972Z,100895.00
2019-06-08T14:04:39.684Z,100902.00
2019-06-08T14:07:12.681Z,100887.00
2019-06-08T14:09:47.874Z,100890.00
2019-06-08T14:12:23.995Z,100902.00
2019-06-08T14:14:58.254Z,100892.00
2019-06-08T14:17:30.377Z,100902.00
2019-06-08T14:20:03.672Z,100890.00
2019-06-08T14:22:38.792Z,100894.00
2019-06-08T14:25:11.301Z,100887.00
2019-06-08T14:27:44.163Z,100896.00
2019-06-08T14:30:18.250Z,100907.00
2019-06-08T14:32:51.762Z,100897.00
2019-06-08T14:35:25.717Z,100884.00
2019-06-08T14:37:59.418Z,100894.00
2019-06-08T14:40:33.152Z,100900.00
2019-06-08T14:43:10.489Z,100898.00
2019-06-08T14:45:41.037Z,100895.00
2019-06-08T14:48:14.022Z,100891.00
2019-06-08T14:50:48.028Z,100896.00
2019-06-08T14:53:21.878Z,100890.00
2019-06-08T14:56:05.588Z,100891.00
2019-06-08T14:58:34.550Z,100896.00
2019-06-08T15:01:07.737Z,100887.00
2019-06-08T15:03:40.042Z,100882.00
2019-06-08T15:06:14.001Z,100881.00
2019-06-08T15:08:50.138Z,100884.00
2019-06-08T15:11:21.583Z,100883.00
2019-06-08T15:13:54.527Z,100890.00
2019-06-08T15:16:30.139Z,100896.00
2019-06-08T15:19:02.080Z,100896.00
2019-06-08T15:21:34.921Z,100892.00
2019-06-08T15:24:08.137Z,100889.00
2019-06-08T15:26:45.097Z,100876.00
2019-06-08T15:29:15.947Z,100892.00
2019-06-08T15:31:48.769Z,100886.00
2019-06-08T15:34:21.598Z,100885.00
2019-06-08T15:36:54.455Z,100873.00
2019-06-08T15:39:30.431Z,100882.00
2019-06-08T15:42:02.219Z,100867.00
2019-06-08T15:44:35.048Z,100868.00
2019-06-08T15:47:08.335Z,100878.00
2019-06-08T15:49:41.352Z,100870.00
2019-06-08T15:52:14.182Z,100874.00
2019-06-08T15:54:48.394Z,100869.00
2019-06-08T15:57:22.930Z,100862.00
2019-06-08T15:59:58.428Z,100869.00
2019-06-08T16:02:31.661Z,100866.00
2019-06-08T16:05:06.899Z,100867.00
2019-06-08T16:07:39.747Z,100861.00
2019-06-08T16:10:12.882Z,100867.00
2019-06-08T16:12:45.738Z,100871.00
2019-06-08T16:15:18.701Z,100869.00
2019-06-08T16:17:51.560Z,100862.00
2019-06-08T16:20:25.328Z,100858.00
2019-06-08T16:23:00.056Z,100865.00
2019-06-08T16:25:36.731Z,100864.00
2019-06-08T16:28:07.706Z,100860.00
2019-06-08T16:30:40.531Z,100860.00
2019-06-08T16:33:13.351Z,100871.00
2019-06-08T16:35:46.294Z,100863.00
2019-06-08T16:38:19.137Z,100866.00
2019-06-08T16:40:52.047Z,100861.00
2019-06-08T16:43:25.081Z,100866.00
2019-06-08T16:45:57.970Z,100869.00
2019-06-08T16:48:32.242Z,100875.00
2019-06-08T16:51:06.478Z,100875.00
2019-06-08T16:53:40.074Z,100875.00
2019-06-08T16:56:13.176Z,100865.00
2019-06-08T16:58:46.307Z,100887.00
2019-06-08T17:01:19.368Z,100874.00
2019-06-08T17:03:52.258Z,100872.00
2019-06-08T17:06:25.297Z,100862.00
2019-06-08T17:08:58.326Z,100875.00
2019-06-08T17:11:31.819Z,100885.00
2019-06-08T17:14:04.726Z,100879.00
2019-06-08T17:16:38.817Z,100880.00
2019-06-08T17:19:11.743Z,100887.00
2019-06-08T17:21:44.707Z,100882.00
2019-06-08T17:24:17.533Z,100890.00
2019-06-08T17:26:50.403Z,100889.00
2019-06-08T17:29:23.332Z,100890.00
2019-06-08T17:31:56.473Z,100884.00
2019-06-08T17:34:29.307Z,100883.00
2019-06-08T17:37:03.270Z,100885.00
2019-06-08T17:39:36.139Z,100883.00
2019-06-08T17:42:09.057Z,100899.00
2019-06-08T17:44:42.554Z,100897.00
2019-06-08T17:47:15.708Z,100893.00
2019-06-08T17:49:48.540Z,100891.00
2019-06-08T17:52:21.464Z,100897.00
2019-06-08T17:54:54.310Z,100892.00
2019-06-08T17:57:41.484Z,100893.00
2019-06-08T18:00:02.319Z,100892.00
2019-06-08T18:02:39.912Z,100891.00
2019-06-08T18:05:12.741Z,100880.00
2019-06-08T18:07:48.246Z,100883.00
2019-06-08T18:10:20.363Z,100884.00
2019-06-08T18:12:53.163Z,100887.00
2019-06-08T18:15:28.306Z,100886.00
2019-06-08T18:18:00.907Z,100889.00
2019-06-08T18:20:34.272Z,100890.00
2019-06-08T18:23:08.211Z,100898.00
2019-06-08T18:25:42.110Z,100882.00
2019-06-08T18:28:17.212Z,100894.00
2019-06-08T18:30:50.315Z,100892.00
2019-06-08T18:33:23.223Z,100902.00
2019-06-08T18:35:57.656Z,100886.00
2019-06-08T18:38:30.765Z,100885.00
2019-06-08T18:41:03.978Z,100890.00
2019-06-08T18:43:39.626Z,100883.00
2019-06-08T18:46:12.074Z,100891.00
2019-06-08T18:48:46.254Z,100892.00
2019-06-08T18:51:19.911Z,100891.00
2019-06-08T18:54:07.365Z,100898.00
2019-06-08T18:56:27.785Z,100903.00
2019-06-08T18:59:00.867Z,100901.00
2019-06-08T19:01:34.996Z,100910.00
2019-06-08T19:04:08.196Z,100905.00
2019-06-08T19:06:43.688Z,100909.00
2019-06-08T19:09:17.163Z,100907.00
2019-06-08T19:11:51.657Z,100896.00
2019-06-08T19:14:24.668Z,100909.00
2019-06-08T19:16:58.183Z,100899.00
2019-06-08T19:19:31.705Z,100900.00
2019-06-08T19:22:08.669Z,100896.00
2019-06-08T19:24:43.620Z,100893.00
2019-06-08T19:27:18.014Z,100892.00
2019-06-08T19:29:51.902Z,100904.00
2019-06-08T19:32:24.943Z,100901.00
2019-06-08T19:34:58.100Z,100901.00
2019-06-08T19:37:33.063Z,100904.00
2019-06-08T19:40:07.449Z,100898.00
2019-06-08T19:42:50.124Z,100908.00
2019-06-08T19:45:18.063Z,100903.00
2019-06-08T19:47:50.500Z,100899.00
2019-06-08T19:50:23.611Z,100911.00
2019-06-08T19:52:58.079Z,100918.00
2019-06-08T19:55:32.217Z,100917.00
2019-06-08T19:58:05.726Z,100917.00
2019-06-08T20:00:40.588Z,100905.00
2019-06-08T20:03:14.216Z,100919.00
2019-06-08T20:05:50.602Z,100925.00
2019-06-08T20:08:22.308Z,100928.00
2019-06-08T20:10:57.271Z,100929.00
2019-06-08T20:13:29.932Z,100930.00
2019-06-08T20:16:03.384Z,100943.00
2019-06-08T20:18:37.538Z,100941.00
2019-06-08T20:21:10.487Z,100933.00
2019-06-08T20:23:43.410Z,100934.00
2019-06-08T20:26:17.358Z,100937.00
2019-06-08T20:28:52.945Z,100945.00
2019-06-08T20:31:26.935Z,100933.00
2019-06-08T20:33:59.930Z,100943.00
2019-06-08T20:36:32.793Z,100943.00
2019-06-08T20:39:07.442Z,100944.00
2019-06-08T20:41:41.691Z,100946.00
2019-06-08T20:44:14.753Z,100935.00
2019-06-08T20:46:49.473Z,100939.00
2019-06-08T20:49:22.434Z,100939.00
2019-06-08T20:51:57.046Z,100951.00
2019-06-08T20:54:30.311Z,100949.00
2019-06-08T20:57:03.222Z,100944.00
2019-06-08T20:59:39.511Z,100939.00
2019-06-08T21:02:12.104Z,100945.00
2019-06-08T21:04:46.735Z,100949.00
2019-06-08T21:07:19.724Z,100962.00
2019-06-08T21:09:53.705Z,100960.00
2019-06-08T21:12:28.307Z,100955.00
2019-06-08T21:15:01.347Z,100960.00
2019-06-08T21:17:34.234Z,100968.00
2019-06-08T21:20:08.489Z,100961.00
2019-06-08T21:22:41.638Z,100959.00
2019-06-08T21:25:14.521Z,100964.00
2019-06-08T21:27:48.543Z,100955.00
2019-06-08T21:30:24.743Z,100959.00
2019-06-08T21:33:00.673Z,100954.00
2019-06-08T21:35:31.863Z,100963.00
2019-06-08T21:38:20.330Z,100954.00
2019-06-08T21:40:41.288Z,100958.00
2019-06-08T21:43:14.143Z,100962.00
2019-06-08T21:45:48.582Z,100959.00
2019-06-08T21:48:22.000Z,100963.00
2019-06-08T21:50:58.984Z,100966.00
2019-06-08T21:53:29.834Z,100970.00
2019-06-08T21:56:02.761Z,100975.00
2019-06-08T21:58:37.848Z,100972.00
2019-06-08T22:01:12.238Z,100969.00
2019-06-08T22:03:47.167Z,100973.00
2019-06-08T22:06:20.173Z,100978.00
2019-06-08T22:08:54.067Z,100976.00
2019-06-08T22:11:27.083Z,100973.00
2019-06-08T22:14:00.944Z,100978.00
2019-06-08T22:16:33.978Z,100976.00
2019-06-08T22:19:07.629Z,100976.00
2019-06-08T22:21:41.737Z,100984.00
2019-06-08T22:24:14.560Z,100988.00
2019-06-08T22:26:47.429Z,100992.00
2019-06-08T22:29:20.463Z,101001.00
2019-06-08T22:31:53.816Z,100994.00
2019-06-08T22:34:27.997Z,100994.00
2019-06-08T22:37:02.242Z,100992.00
2019-06-08T22:39:37.453Z,100999.00
2019-06-08T22:42:09.893Z,101000.00
2019-06-08T22:44:42.757Z,101001.00
2019-06-08T22:47:15.717Z,101004.00
2019-06-08T22:49:49.752Z,100998.00
2019-06-08T22:52:22.650Z,101005.00
2019-06-08T22:55:02.051Z,100998.00
2019-06-08T22:57:31.445Z,101002.00
2019-06-08T23:00:14.259Z,101008.00
2019-06-08T23:02:40.975Z,101009.00
2019-06-08T23:05:14.080Z,101008.00
2019-06-08T23:07:48.816Z,101009.00
2019-06-08T23:10:21.637Z,101017.00
2019-06-08T23:12:54.462Z,101002.00
2019-06-08T23:15:27.339Z,101001.00
2019-06-08T23:18:02.407Z,101009.00
2019-06-08T23:20:37.027Z,101004.00
2019-06-08T23:23:09.663Z,101003.00
2019-06-08T23:25:42.537Z,101005.00
2019-06-08T23:28:17.893Z,101000.00
2019-06-08T23:31:03.875Z,101006.00
2019-06-08T23:33:27.764Z,100995.00
2019-06-08T23:36:33.666Z,100996.00
2019-06-08T23:38:37.380Z,100996.00
2019-06-08T23:41:10.274Z,100996.00
2019-06-08T23:43:43.118Z,101001.00
2019-06-08T23:46:18.150Z,100988.00
2019-06-08T23:48:50.674Z,100982.00
2019-06-08T23:51:23.519Z,100990.00
2019-06-08T23:53:59.678Z,100982.00
2019-06-08T23:56:31.115Z,100990.00
2019-06-08T23:59:05.131Z,100990.00
